sensor_id;sensor_type;location;lat;lon;timestamp;P1;durP1;ratioP1;P2;durP2;ratioP2
34982;SDS011;21187;50.976;13.720;2022-12-10T00:03:09;83.85;;;24.08;;
34982;SDS011;21187;50.976;13.720;2022-12-10T00:08:11;78.63;;;24.90;;
34982;SDS011;21187;50.976;13.720;2022-12-10T00:13:13;79.00;;;23.77;;
34982;SDS011;21187;50.976;13.720;2022-12-10T00:18:15;82.22;;;24.08;;
34982;SDS011;21187;50.976;13.720;2022-12-10T00:23:17;82.80;;;23.90;;
34982;SDS011;21187;50.976;13.720;2022-12-10T00:28:23;76.75;;;22.90;;
34982;SDS011;21187;50.976;13.720;2022-12-10T00:33:26;80.72;;;23.42;;
34982;SDS011;21187;50.976;13.720;2022-12-10T00:38:28;80.45;;;24.27;;
34982;SDS011;21187;50.976;13.720;2022-12-10T00:43:30;69.25;;;23.60;;
34982;SDS011;21187;50.976;13.720;2022-12-10T00:48:32;85.97;;;24.58;;
34982;SDS011;21187;50.976;13.720;2022-12-10T00:53:35;76.95;;;24.60;;
34982;SDS011;21187;50.976;13.720;2022-12-10T00:58:39;71.55;;;22.38;;
34982;SDS011;21187;50.976;13.720;2022-12-10T01:03:43;78.22;;;23.85;;
34982;SDS011;21187;50.976;13.720;2022-12-10T01:08:46;72.60;;;21.35;;
34982;SDS011;21187;50.976;13.720;2022-12-10T01:13:49;80.72;;;23.33;;
34982;SDS011;21187;50.976;13.720;2022-12-10T01:18:57;66.90;;;23.15;;
34982;SDS011;21187;50.976;13.720;2022-12-10T01:24:00;75.18;;;22.60;;
34982;SDS011;21187;50.976;13.720;2022-12-10T01:29:03;84.78;;;23.17;;
34982;SDS011;21187;50.976;13.720;2022-12-10T01:34:07;76.50;;;22.13;;
34982;SDS011;21187;50.976;13.720;2022-12-10T01:39:13;73.03;;;22.30;;
34982;SDS011;21187;50.976;13.720;2022-12-10T01:49:26;79.40;;;23.10;;
34982;SDS011;21187;50.976;13.720;2022-12-10T01:54:35;89.80;;;24.65;;
34982;SDS011;21187;50.976;13.720;2022-12-10T01:59:42;79.63;;;21.92;;
34982;SDS011;21187;50.976;13.720;2022-12-10T02:15:51;69.30;;;21.08;;
34982;SDS011;21187;50.976;13.720;2022-12-10T02:21:01;71.32;;;22.98;;
34982;SDS011;21187;50.976;13.720;2022-12-10T02:26:11;79.88;;;24.08;;
34982;SDS011;21187;50.976;13.720;2022-12-10T02:31:22;70.65;;;22.52;;
34982;SDS011;21187;50.976;13.720;2022-12-10T02:36:29;63.53;;;21.00;;
34982;SDS011;21187;50.976;13.720;2022-12-10T02:41:37;76.38;;;21.70;;
34982;SDS011;21187;50.976;13.720;2022-12-10T02:46:49;72.15;;;21.50;;
34982;SDS011;21187;50.976;13.720;2022-12-10T02:51:53;69.03;;;21.40;;
34982;SDS011;21187;50.976;13.720;2022-12-10T02:56:58;75.32;;;21.60;;
34982;SDS011;21187;50.976;13.720;2022-12-10T03:07:24;64.90;;;21.05;;
34982;SDS011;21187;50.976;13.720;2022-12-10T03:12:44;65.38;;;20.98;;
34982;SDS011;21187;50.976;13.720;2022-12-10T03:17:50;89.65;;;22.05;;
34982;SDS011;21187;50.976;13.720;2022-12-10T03:22:55;69.80;;;21.00;;
34982;SDS011;21187;50.976;13.720;2022-12-10T03:27:57;68.60;;;19.33;;
34982;SDS011;21187;50.976;13.720;2022-12-10T03:33:02;70.40;;;20.80;;
34982;SDS011;21187;50.976;13.720;2022-12-10T03:38:05;63.47;;;22.10;;
34982;SDS011;21187;50.976;13.720;2022-12-10T03:43:07;68.13;;;21.20;;
34982;SDS011;21187;50.976;13.720;2022-12-10T03:48:09;78.82;;;22.50;;
34982;SDS011;21187;50.976;13.720;2022-12-10T03:53:11;65.25;;;20.50;;
34982;SDS011;21187;50.976;13.720;2022-12-10T03:58:12;66.38;;;20.23;;
34982;SDS011;21187;50.976;13.720;2022-12-10T04:03:20;68.22;;;21.63;;
34982;SDS011;21187;50.976;13.720;2022-12-10T04:08:22;62.65;;;21.05;;
34982;SDS011;21187;50.976;13.720;2022-12-10T04:13:24;62.72;;;19.90;;
34982;SDS011;21187;50.976;13.720;2022-12-10T04:18:59;61.13;;;19.88;;
34982;SDS011;21187;50.976;13.720;2022-12-10T04:24:04;67.20;;;20.27;;
34982;SDS011;21187;50.976;13.720;2022-12-10T04:29:28;61.33;;;19.77;;
34982;SDS011;21187;50.976;13.720;2022-12-10T04:34:31;64.72;;;19.30;;
34982;SDS011;21187;50.976;13.720;2022-12-10T04:39:33;56.65;;;18.88;;
34982;SDS011;21187;50.976;13.720;2022-12-10T04:44:35;50.78;;;16.63;;
34982;SDS011;21187;50.976;13.720;2022-12-10T04:49:38;61.92;;;19.25;;
34982;SDS011;21187;50.976;13.720;2022-12-10T04:54:41;55.70;;;18.73;;
34982;SDS011;21187;50.976;13.720;2022-12-10T04:59:43;57.28;;;18.02;;
34982;SDS011;21187;50.976;13.720;2022-12-10T05:04:45;61.58;;;19.02;;
34982;SDS011;21187;50.976;13.720;2022-12-10T05:09:49;61.35;;;20.55;;
34982;SDS011;21187;50.976;13.720;2022-12-10T05:14:51;62.58;;;18.73;;
34982;SDS011;21187;50.976;13.720;2022-12-10T05:19:53;67.95;;;20.15;;
34982;SDS011;21187;50.976;13.720;2022-12-10T05:24:54;60.08;;;18.25;;
34982;SDS011;21187;50.976;13.720;2022-12-10T05:29:56;68.63;;;20.63;;
34982;SDS011;21187;50.976;13.720;2022-12-10T05:34:58;73.90;;;21.75;;
34982;SDS011;21187;50.976;13.720;2022-12-10T05:40:00;73.43;;;19.40;;
34982;SDS011;21187;50.976;13.720;2022-12-10T05:45:02;64.65;;;18.52;;
34982;SDS011;21187;50.976;13.720;2022-12-10T05:50:05;63.53;;;19.15;;
34982;SDS011;21187;50.976;13.720;2022-12-10T05:55:08;69.40;;;20.90;;
34982;SDS011;21187;50.976;13.720;2022-12-10T06:00:10;68.07;;;18.85;;
34982;SDS011;21187;50.976;13.720;2022-12-10T06:05:12;67.93;;;19.10;;
34982;SDS011;21187;50.976;13.720;2022-12-10T06:10:14;74.03;;;20.25;;
34982;SDS011;21187;50.976;13.720;2022-12-10T06:15:16;74.70;;;21.35;;
34982;SDS011;21187;50.976;13.720;2022-12-10T06:20:18;67.28;;;19.98;;
34982;SDS011;21187;50.976;13.720;2022-12-10T06:25:22;68.97;;;20.17;;
34982;SDS011;21187;50.976;13.720;2022-12-10T06:30:24;68.00;;;21.38;;
34982;SDS011;21187;50.976;13.720;2022-12-10T06:35:26;69.05;;;19.67;;
34982;SDS011;21187;50.976;13.720;2022-12-10T06:40:28;66.43;;;19.88;;
34982;SDS011;21187;50.976;13.720;2022-12-10T06:45:30;68.47;;;19.83;;
34982;SDS011;21187;50.976;13.720;2022-12-10T06:50:32;68.70;;;20.40;;
34982;SDS011;21187;50.976;13.720;2022-12-10T06:55:35;72.43;;;20.25;;
34982;SDS011;21187;50.976;13.720;2022-12-10T07:00:38;64.05;;;19.63;;
34982;SDS011;21187;50.976;13.720;2022-12-10T07:05:40;72.03;;;21.23;;
34982;SDS011;21187;50.976;13.720;2022-12-10T07:10:42;63.45;;;18.45;;
34982;SDS011;21187;50.976;13.720;2022-12-10T07:15:44;69.97;;;20.70;;
34982;SDS011;21187;50.976;13.720;2022-12-10T07:20:45;72.25;;;18.77;;
34982;SDS011;21187;50.976;13.720;2022-12-10T07:25:47;63.38;;;19.15;;
34982;SDS011;21187;50.976;13.720;2022-12-10T07:30:49;64.53;;;18.52;;
34982;SDS011;21187;50.976;13.720;2022-12-10T07:35:51;70.57;;;20.67;;
34982;SDS011;21187;50.976;13.720;2022-12-10T07:40:53;66.88;;;19.73;;
34982;SDS011;21187;50.976;13.720;2022-12-10T07:45:55;66.68;;;20.73;;
34982;SDS011;21187;50.976;13.720;2022-12-10T07:50:57;82.30;;;21.75;;
34982;SDS011;21187;50.976;13.720;2022-12-10T07:55:59;71.85;;;19.75;;
34982;SDS011;21187;50.976;13.720;2022-12-10T08:01:05;64.10;;;19.30;;
34982;SDS011;21187;50.976;13.720;2022-12-10T08:06:10;63.28;;;20.85;;
34982;SDS011;21187;50.976;13.720;2022-12-10T08:11:15;70.45;;;20.92;;
34982;SDS011;21187;50.976;13.720;2022-12-10T08:16:19;66.97;;;19.02;;
34982;SDS011;21187;50.976;13.720;2022-12-10T08:21:25;70.40;;;20.77;;
34982;SDS011;21187;50.976;13.720;2022-12-10T08:26:30;87.15;;;20.88;;
34982;SDS011;21187;50.976;13.720;2022-12-10T08:31:33;70.45;;;20.27;;
34982;SDS011;21187;50.976;13.720;2022-12-10T08:36:38;72.72;;;20.05;;
34982;SDS011;21187;50.976;13.720;2022-12-10T08:41:40;69.55;;;19.25;;
34982;SDS011;21187;50.976;13.720;2022-12-10T08:46:42;72.60;;;19.25;;
34982;SDS011;21187;50.976;13.720;2022-12-10T08:51:44;69.47;;;20.17;;
34982;SDS011;21187;50.976;13.720;2022-12-10T08:56:46;63.22;;;18.15;;
34982;SDS011;21187;50.976;13.720;2022-12-10T09:01:48;66.40;;;19.15;;
34982;SDS011;21187;50.976;13.720;2022-12-10T09:06:56;62.97;;;19.30;;
34982;SDS011;21187;50.976;13.720;2022-12-10T09:11:58;66.63;;;20.10;;
34982;SDS011;21187;50.976;13.720;2022-12-10T09:17:03;69.18;;;18.63;;
34982;SDS011;21187;50.976;13.720;2022-12-10T09:22:06;64.60;;;19.48;;
34982;SDS011;21187;50.976;13.720;2022-12-10T09:27:08;70.93;;;20.00;;
34982;SDS011;21187;50.976;13.720;2022-12-10T09:32:10;63.35;;;19.10;;
34982;SDS011;21187;50.976;13.720;2022-12-10T09:37:12;63.03;;;19.05;;
34982;SDS011;21187;50.976;13.720;2022-12-10T09:48:52;64.57;;;19.52;;
34982;SDS011;21187;50.976;13.720;2022-12-10T09:53:33;64.13;;;19.50;;
34982;SDS011;21187;50.976;13.720;2022-12-10T09:58:38;59.42;;;19.20;;
34982;SDS011;21187;50.976;13.720;2022-12-10T10:03:40;58.47;;;19.60;;
34982;SDS011;21187;50.976;13.720;2022-12-10T10:08:47;56.65;;;18.63;;
34982;SDS011;21187;50.976;13.720;2022-12-10T10:13:54;69.32;;;20.30;;
34982;SDS011;21187;50.976;13.720;2022-12-10T10:19:10;54.92;;;17.75;;
34982;SDS011;21187;50.976;13.720;2022-12-10T10:24:16;80.03;;;29.55;;
34982;SDS011;21187;50.976;13.720;2022-12-10T10:29:24;53.22;;;17.75;;
34982;SDS011;21187;50.976;13.720;2022-12-10T10:34:30;50.30;;;16.70;;
34982;SDS011;21187;50.976;13.720;2022-12-10T10:39:33;51.30;;;18.10;;
34982;SDS011;21187;50.976;13.720;2022-12-10T10:44:38;61.15;;;20.45;;
34982;SDS011;21187;50.976;13.720;2022-12-10T10:49:43;64.18;;;22.70;;
34982;SDS011;21187;50.976;13.720;2022-12-10T10:54:45;52.13;;;18.45;;
34982;SDS011;21187;50.976;13.720;2022-12-10T10:59:49;60.15;;;19.55;;
34982;SDS011;21187;50.976;13.720;2022-12-10T11:04:54;58.90;;;19.45;;
34982;SDS011;21187;50.976;13.720;2022-12-10T11:10:00;55.13;;;20.85;;
34982;SDS011;21187;50.976;13.720;2022-12-10T11:20:25;56.97;;;19.90;;
34982;SDS011;21187;50.976;13.720;2022-12-10T11:30:34;45.80;;;17.38;;
34982;SDS011;21187;50.976;13.720;2022-12-10T11:36:00;57.60;;;18.90;;
34982;SDS011;21187;50.976;13.720;2022-12-10T11:41:58;42.38;;;16.42;;
34982;SDS011;21187;50.976;13.720;2022-12-10T12:08:21;48.65;;;19.42;;
34982;SDS011;21187;50.976;13.720;2022-12-10T12:14:16;40.20;;;15.90;;
34982;SDS011;21187;50.976;13.720;2022-12-10T12:18:59;51.78;;;17.60;;
34982;SDS011;21187;50.976;13.720;2022-12-10T12:24:47;44.30;;;16.48;;
34982;SDS011;21187;50.976;13.720;2022-12-10T12:29:41;44.53;;;15.55;;
34982;SDS011;21187;50.976;13.720;2022-12-10T12:34:51;49.00;;;18.80;;
34982;SDS011;21187;50.976;13.720;2022-12-10T12:45:12;47.60;;;17.00;;
34982;SDS011;21187;50.976;13.720;2022-12-10T12:55:31;43.45;;;17.30;;
34982;SDS011;21187;50.976;13.720;2022-12-10T13:00:59;46.95;;;18.15;;
34982;SDS011;21187;50.976;13.720;2022-12-10T13:06:17;43.90;;;16.33;;
34982;SDS011;21187;50.976;13.720;2022-12-10T13:11:31;40.10;;;16.17;;
34982;SDS011;21187;50.976;13.720;2022-12-10T13:22:09;43.70;;;18.33;;
34982;SDS011;21187;50.976;13.720;2022-12-10T13:27:34;40.42;;;16.40;;
34982;SDS011;21187;50.976;13.720;2022-12-10T13:43:41;52.63;;;18.63;;
34982;SDS011;21187;50.976;13.720;2022-12-10T13:48:55;46.17;;;17.05;;
34982;SDS011;21187;50.976;13.720;2022-12-10T14:09:48;45.35;;;16.92;;
34982;SDS011;21187;50.976;13.720;2022-12-10T14:15:01;43.35;;;16.83;;
34982;SDS011;21187;50.976;13.720;2022-12-10T14:20:06;56.45;;;19.75;;
34982;SDS011;21187;50.976;13.720;2022-12-10T14:25:14;64.20;;;19.00;;
34982;SDS011;21187;50.976;13.720;2022-12-10T14:30:20;36.45;;;14.25;;
34982;SDS011;21187;50.976;13.720;2022-12-10T14:35:28;38.40;;;14.13;;
34982;SDS011;21187;50.976;13.720;2022-12-10T14:50:52;50.88;;;18.92;;
34982;SDS011;21187;50.976;13.720;2022-12-10T14:55:56;45.75;;;17.00;;
34982;SDS011;21187;50.976;13.720;2022-12-10T15:01:03;42.30;;;17.57;;
34982;SDS011;21187;50.976;13.720;2022-12-10T15:06:06;44.20;;;15.73;;
34982;SDS011;21187;50.976;13.720;2022-12-10T15:11:10;36.45;;;14.77;;
34982;SDS011;21187;50.976;13.720;2022-12-10T15:16:20;44.03;;;16.00;;
34982;SDS011;21187;50.976;13.720;2022-12-10T15:21:30;48.17;;;17.33;;
34982;SDS011;21187;50.976;13.720;2022-12-10T15:26:32;47.42;;;15.63;;
34982;SDS011;21187;50.976;13.720;2022-12-10T15:31:34;43.08;;;16.42;;
34982;SDS011;21187;50.976;13.720;2022-12-10T15:36:43;46.00;;;16.60;;
34982;SDS011;21187;50.976;13.720;2022-12-10T15:47:01;47.67;;;18.13;;
34982;SDS011;21187;50.976;13.720;2022-12-10T15:52:13;48.22;;;18.17;;
34982;SDS011;21187;50.976;13.720;2022-12-10T16:02:36;49.50;;;18.15;;
34982;SDS011;21187;50.976;13.720;2022-12-10T16:07:41;53.55;;;18.08;;
34982;SDS011;21187;50.976;13.720;2022-12-10T16:12:48;62.13;;;22.40;;
34982;SDS011;21187;50.976;13.720;2022-12-10T16:17:51;50.00;;;19.33;;
34982;SDS011;21187;50.976;13.720;2022-12-10T16:22:53;58.05;;;18.75;;
34982;SDS011;21187;50.976;13.720;2022-12-10T16:27:56;53.60;;;19.77;;
34982;SDS011;21187;50.976;13.720;2022-12-10T16:33:00;51.28;;;19.35;;
34982;SDS011;21187;50.976;13.720;2022-12-10T16:38:02;52.05;;;18.95;;
34982;SDS011;21187;50.976;13.720;2022-12-10T16:43:12;58.65;;;21.00;;
34982;SDS011;21187;50.976;13.720;2022-12-10T16:48:16;53.40;;;21.00;;
34982;SDS011;21187;50.976;13.720;2022-12-10T16:53:26;49.22;;;20.10;;
34982;SDS011;21187;50.976;13.720;2022-12-10T16:58:30;62.05;;;21.65;;
34982;SDS011;21187;50.976;13.720;2022-12-10T17:03:31;65.55;;;20.98;;
34982;SDS011;21187;50.976;13.720;2022-12-10T17:08:33;56.83;;;20.38;;
34982;SDS011;21187;50.976;13.720;2022-12-10T17:13:35;48.33;;;18.55;;
34982;SDS011;21187;50.976;13.720;2022-12-10T17:18:38;63.42;;;19.38;;
34982;SDS011;21187;50.976;13.720;2022-12-10T17:23:40;54.15;;;17.60;;
34982;SDS011;21187;50.976;13.720;2022-12-10T17:28:41;52.25;;;20.17;;
34982;SDS011;21187;50.976;13.720;2022-12-10T17:33:43;49.55;;;19.42;;
34982;SDS011;21187;50.976;13.720;2022-12-10T17:38:52;55.42;;;19.58;;
34982;SDS011;21187;50.976;13.720;2022-12-10T17:43:54;56.30;;;21.23;;
34982;SDS011;21187;50.976;13.720;2022-12-10T17:48:56;55.67;;;19.45;;
34982;SDS011;21187;50.976;13.720;2022-12-10T17:53:58;54.85;;;18.55;;
34982;SDS011;21187;50.976;13.720;2022-12-10T17:59:01;57.42;;;21.05;;
34982;SDS011;21187;50.976;13.720;2022-12-10T18:04:03;58.47;;;21.85;;
34982;SDS011;21187;50.976;13.720;2022-12-10T18:09:09;49.05;;;18.60;;
34982;SDS011;21187;50.976;13.720;2022-12-10T18:14:12;50.40;;;18.15;;
34982;SDS011;21187;50.976;13.720;2022-12-10T18:19:15;58.15;;;21.38;;
34982;SDS011;21187;50.976;13.720;2022-12-10T18:24:18;48.80;;;18.20;;
34982;SDS011;21187;50.976;13.720;2022-12-10T18:29:21;61.15;;;21.42;;
34982;SDS011;21187;50.976;13.720;2022-12-10T18:34:22;50.13;;;18.02;;
34982;SDS011;21187;50.976;13.720;2022-12-10T18:39:27;51.92;;;19.38;;
34982;SDS011;21187;50.976;13.720;2022-12-10T18:44:30;45.40;;;17.92;;
34982;SDS011;21187;50.976;13.720;2022-12-10T18:49:32;49.92;;;16.85;;
34982;SDS011;21187;50.976;13.720;2022-12-10T18:54:34;48.53;;;16.73;;
34982;SDS011;21187;50.976;13.720;2022-12-10T18:59:38;49.25;;;17.42;;
34982;SDS011;21187;50.976;13.720;2022-12-10T19:04:40;64.70;;;21.15;;
34982;SDS011;21187;50.976;13.720;2022-12-10T19:09:43;51.45;;;18.98;;
34982;SDS011;21187;50.976;13.720;2022-12-10T19:14:45;58.05;;;21.42;;
34982;SDS011;21187;50.976;13.720;2022-12-10T19:19:47;56.22;;;19.83;;
34982;SDS011;21187;50.976;13.720;2022-12-10T19:24:48;63.25;;;22.65;;
34982;SDS011;21187;50.976;13.720;2022-12-10T19:29:50;62.40;;;21.67;;
34982;SDS011;21187;50.976;13.720;2022-12-10T19:34:52;64.18;;;23.55;;
34982;SDS011;21187;50.976;13.720;2022-12-10T19:39:54;56.80;;;21.65;;
34982;SDS011;21187;50.976;13.720;2022-12-10T19:44:56;63.63;;;22.70;;
34982;SDS011;21187;50.976;13.720;2022-12-10T19:49:59;61.15;;;22.52;;
34982;SDS011;21187;50.976;13.720;2022-12-10T19:55:01;66.72;;;20.65;;
34982;SDS011;21187;50.976;13.720;2022-12-10T20:00:04;62.45;;;21.25;;
34982;SDS011;21187;50.976;13.720;2022-12-10T20:05:09;61.03;;;21.45;;
34982;SDS011;21187;50.976;13.720;2022-12-10T20:15:20;53.38;;;19.00;;
34982;SDS011;21187;50.976;13.720;2022-12-10T20:20:25;57.15;;;20.38;;
34982;SDS011;21187;50.976;13.720;2022-12-10T20:25:28;60.47;;;21.95;;
34982;SDS011;21187;50.976;13.720;2022-12-10T20:30:30;56.85;;;20.15;;
34982;SDS011;21187;50.976;13.720;2022-12-10T20:35:32;56.22;;;19.65;;
34982;SDS011;21187;50.976;13.720;2022-12-10T20:40:38;51.65;;;19.27;;
34982;SDS011;21187;50.976;13.720;2022-12-10T20:45:40;55.75;;;19.42;;
34982;SDS011;21187;50.976;13.720;2022-12-10T20:50:43;46.60;;;18.55;;
34982;SDS011;21187;50.976;13.720;2022-12-10T20:55:45;53.50;;;18.27;;
34982;SDS011;21187;50.976;13.720;2022-12-10T21:00:47;50.15;;;18.27;;
34982;SDS011;21187;50.976;13.720;2022-12-10T21:05:49;50.92;;;18.58;;
34982;SDS011;21187;50.976;13.720;2022-12-10T21:10:51;48.90;;;17.15;;
34982;SDS011;21187;50.976;13.720;2022-12-10T21:15:55;43.78;;;16.48;;
34982;SDS011;21187;50.976;13.720;2022-12-10T21:20:59;40.63;;;17.42;;
34982;SDS011;21187;50.976;13.720;2022-12-10T21:26:02;50.97;;;19.40;;
34982;SDS011;21187;50.976;13.720;2022-12-10T21:31:04;58.75;;;20.95;;
34982;SDS011;21187;50.976;13.720;2022-12-10T21:36:07;55.97;;;19.60;;
34982;SDS011;21187;50.976;13.720;2022-12-10T21:41:13;53.00;;;18.00;;
34982;SDS011;21187;50.976;13.720;2022-12-10T21:46:38;50.72;;;19.48;;
34982;SDS011;21187;50.976;13.720;2022-12-10T21:51:41;51.50;;;19.25;;
34982;SDS011;21187;50.976;13.720;2022-12-10T21:56:42;51.53;;;18.35;;
34982;SDS011;21187;50.976;13.720;2022-12-10T22:01:44;49.70;;;19.15;;
34982;SDS011;21187;50.976;13.720;2022-12-10T22:06:46;41.10;;;16.80;;
34982;SDS011;21187;50.976;13.720;2022-12-10T22:11:48;52.50;;;16.17;;
34982;SDS011;21187;50.976;13.720;2022-12-10T22:16:50;47.35;;;17.85;;
34982;SDS011;21187;50.976;13.720;2022-12-10T22:21:52;43.90;;;17.15;;
34982;SDS011;21187;50.976;13.720;2022-12-10T22:26:53;46.70;;;16.80;;
34982;SDS011;21187;50.976;13.720;2022-12-10T22:31:55;44.45;;;17.63;;
34982;SDS011;21187;50.976;13.720;2022-12-10T22:36:57;40.15;;;16.42;;
34982;SDS011;21187;50.976;13.720;2022-12-10T22:41:59;45.25;;;17.10;;
34982;SDS011;21187;50.976;13.720;2022-12-10T22:47:01;50.42;;;17.50;;
34982;SDS011;21187;50.976;13.720;2022-12-10T22:52:03;41.75;;;16.00;;
34982;SDS011;21187;50.976;13.720;2022-12-10T22:57:05;49.97;;;17.30;;
34982;SDS011;21187;50.976;13.720;2022-12-10T23:02:07;44.58;;;17.45;;
34982;SDS011;21187;50.976;13.720;2022-12-10T23:07:09;40.72;;;16.30;;
34982;SDS011;21187;50.976;13.720;2022-12-10T23:12:11;44.38;;;16.55;;
34982;SDS011;21187;50.976;13.720;2022-12-10T23:17:31;50.17;;;17.08;;
34982;SDS011;21187;50.976;13.720;2022-12-10T23:22:34;49.35;;;18.48;;
34982;SDS011;21187;50.976;13.720;2022-12-10T23:27:36;48.33;;;16.27;;
34982;SDS011;21187;50.976;13.720;2022-12-10T23:32:39;44.78;;;17.42;;
34982;SDS011;21187;50.976;13.720;2022-12-10T23:37:41;51.15;;;17.02;;
34982;SDS011;21187;50.976;13.720;2022-12-10T23:42:43;45.75;;;16.88;;
34982;SDS011;21187;50.976;13.720;2022-12-10T23:47:45;49.25;;;16.80;;
34982;SDS011;21187;50.976;13.720;2022-12-10T23:52:47;43.85;;;16.52;;
34982;SDS011;21187;50.976;13.720;2022-12-10T23:57:49;43.10;;;16.73;;
